Time;durP1;ratioP1;P1;durP2;ratioP2;P2;SDS_P1;SDS_P2;PMS_P1;PMS_P2;Temp;Humidity;BMP_temperature;BMP_pressure;BME280_temperature;BME280_humidity;BME280_pressure;Samples;Min_cycle;Max_cycle;Signal;HPM_P1;HPM_P2
2023/01/19 00:01:43;;;;;;;8.13;4.45;;;6.80;99.90;;;6.82;85.26;99845.31;5096411;28;20126;-62
2023/01/19 00:04:12;;;;;;;8.85;4.38;;;6.80;99.90;;;5.90;88.26;99814.22;5096162;28;20044;-61
2023/01/19 00:06:40;;;;;;;12.40;4.22;;;6.20;99.90;;;6.03;90.26;99861.44;5096046;28;20051;-61
2023/01/19 00:09:08;;;;;;;8.35;3.92;;;6.00;99.90;;;5.93;91.58;99859.69;5096235;28;20083;-62
2023/01/19 00:11:37;;;;;;;8.80;4.20;;;5.80;99.90;;;5.63;92.79;99864.97;5095980;28;20070;-61
2023/01/19 00:14:05;;;;;;;9.27;3.75;;;5.60;99.90;;;5.69;93.86;99879.81;5096100;28;20110;-61
2023/01/19 00:16:35;;;;;;;9.27;4.50;;;5.60;99.90;;;5.53;94.26;99869.31;5095768;28;20075;-61
2023/01/19 00:19:04;;;;;;;9.63;4.25;;;5.50;99.90;;;3.58;95.42;99575.03;5096119;28;20064;-61
2023/01/19 00:21:32;;;;;;;13.20;4.20;;;5.30;99.90;;;5.33;96.67;99872.81;5095783;28;20038;-61
2023/01/19 00:24:01;;;;;;;11.30;4.17;;;5.20;99.90;;;5.57;97.13;99866.72;5095705;28;20098;-61
2023/01/19 00:26:29;;;;;;;12.30;3.80;;;5.40;99.90;;;5.52;97.42;99866.69;5077810;28;20544;-61
2023/01/19 00:28:58;;;;;;;8.23;4.00;;;5.40;99.90;;;5.42;98.11;99883.31;5095901;28;20044;-61
2023/01/19 00:31:28;;;;;;;18.17;4.70;;;5.30;99.90;;;5.26;98.20;99871.97;5077536;28;20052;-61
2023/01/19 00:33:58;;;;;;;;;;;5.30;99.90;;;5.16;97.68;99866.69;5095892;28;20048;-61
2023/01/19 00:36:27;;;;;;;16.73;5.47;;;5.20;99.90;;;5.11;97.31;99892.03;5095486;28;19927;-61
2023/01/19 00:38:55;;;;;;;16.10;4.53;;;5.10;99.90;;;5.16;98.53;99875.44;5095423;28;20462;-61
2023/01/19 00:44:07;;;;;;;16.63;5.50;;;5.10;99.90;;;5.02;98.53;99861.44;5095276;28;20051;-61
2023/01/19 00:46:35;;;;;;;12.80;4.90;;;5.10;99.90;;;5.15;99.34;99881.53;5077350;28;20553;-62
2023/01/19 00:49:05;;;;;;;16.20;5.23;;;5.10;99.90;;;5.22;98.95;99885.06;5095154;28;20484;-61
2023/01/19 00:51:34;;;;;;;;;;;5.10;99.90;;;5.30;99.60;99894.66;5095603;28;20036;-62
2023/01/19 00:54:03;;;;;;;12.70;4.77;;;5.20;99.90;;;5.29;99.43;99898.16;5095288;28;20348;-61
2023/01/19 00:56:32;;;;;;;19.42;5.93;;;5.20;99.90;;;5.19;99.61;99903.38;5095088;28;20054;-62
2023/01/19 00:59:00;;;;;;;15.87;5.87;;;5.10;99.90;;;5.20;99.18;99905.16;5095040;28;20028;-61
2023/01/19 01:01:29;;;;;;;13.73;4.67;;;5.10;99.90;;;5.19;99.29;99916.47;5095304;28;20040;-61
2023/01/19 01:04:14;;;;;;;14.17;4.83;;;5.10;99.90;;;5.29;99.83;99929.63;5095090;28;20075;-61
2023/01/19 01:06:43;;;;;;;10.52;4.63;;;5.20;99.90;;;5.31;99.57;99913.88;5095209;28;20040;-61
2023/01/19 01:09:11;;;;;;;11.53;4.90;;;5.20;99.90;;;5.16;99.00;99920.00;5095055;28;20406;-62
2023/01/19 01:11:40;;;;;;;12.03;4.33;;;5.10;99.90;;;5.20;99.40;99915.63;5094777;28;20044;-62
2023/01/19 01:14:10;;;;;;;11.17;5.00;;;5.10;99.90;;;5.04;99.41;99922.59;5094664;28;20040;-62
2023/01/19 01:16:39;;;;;;;10.35;4.90;;;5.00;99.90;;;5.03;99.63;99919.97;5094971;28;20055;-62
2023/01/19 01:19:07;;;;;;;8.43;4.33;;;4.90;99.90;;;4.85;100.00;99902.44;5094922;28;20040;-62
2023/01/19 01:21:37;;;;;;;14.37;5.50;;;4.90;99.90;;;4.94;99.85;99930.41;5094878;28;20048;-61
2023/01/19 01:24:06;;;;;;;16.30;5.05;;;4.90;99.90;;;4.90;99.88;99939.13;5095144;28;20399;-61
2023/01/19 01:26:35;;;;;;;10.90;4.40;;;4.80;99.90;;;4.89;100.00;99938.28;5094799;28;20401;-62
2023/01/19 01:29:05;;;;;;;8.87;4.57;;;4.80;99.90;;;4.96;100.00;99940.03;5095053;28;20047;-62
2023/01/19 01:31:34;;;;;;;14.32;4.28;;;4.90;99.90;;;4.91;100.00;99946.13;5094730;28;20048;-62
2023/01/19 01:34:02;;;;;;;9.47;4.40;;;4.80;99.90;;;4.73;100.00;99935.56;5094276;28;20036;-61
2023/01/19 01:36:32;;;;;;;12.47;4.70;;;4.70;99.90;;;4.56;100.00;99933.78;5094872;28;20098;-61
2023/01/19 01:39:02;;;;;;;10.20;4.63;;;4.60;99.90;;;4.68;100.00;99942.56;5076477;28;20052;-62
2023/01/19 01:41:31;;;;;;;9.00;4.47;;;4.60;99.90;;;4.73;100.00;99951.28;5094255;28;20066;-62
2023/01/19 01:44:02;;;;;;;7.57;4.50;;;4.60;99.90;;;4.71;100.00;99963.50;5094130;28;20077;-62
2023/01/19 01:46:31;;;;;;;10.60;4.80;;;4.60;99.90;;;4.74;100.00;99964.41;5094235;28;20079;-62
2023/01/19 01:49:06;;;;;;;12.40;4.60;;;4.60;99.90;;;4.68;100.00;99959.16;5094048;28;20123;-62
2023/01/19 01:51:39;;;;;;;10.63;4.83;;;4.60;99.90;;;4.81;100.00;99965.28;5094099;28;20178;-61
2023/01/19 01:54:15;;;;;;;14.27;5.47;;;4.70;99.90;;;4.86;100.00;99958.34;5093958;28;20046;-61
2023/01/19 01:56:48;;;;;;;14.30;5.50;;;4.80;99.90;;;4.91;100.00;99961.84;5094272;28;20040;-61
2023/01/19 01:59:24;;;;;;;18.23;5.57;;;4.80;99.90;;;4.90;100.00;99960.97;5094505;28;20145;-61
2023/01/19 02:04:50;;;;;;;7.82;4.50;;;4.80;99.90;;;4.81;100.00;99967.91;5093862;28;20450;-61
2023/01/19 02:13:18;;;;;;;14.13;5.30;;;4.80;99.90;;;4.94;100.00;99993.28;5093913;28;20544;-61
2023/01/19 02:15:48;;;;;;;12.00;4.63;;;4.80;99.90;;;3.76;99.66;99799.06;5093595;28;20495;-61
2023/01/19 02:18:20;;;;;;;10.50;4.57;;;4.80;99.90;;;4.83;99.16;99990.63;5093863;28;20057;-61
2023/01/19 02:21:00;;;;;;;7.13;4.33;;;4.80;99.90;;;4.78;99.41;99983.63;5075659;28;20493;-61
2023/01/19 02:23:43;;;;;;;5.75;4.57;;;4.80;99.90;;;4.83;98.86;99989.75;5093594;28;20362;-61
2023/01/19 02:26:14;;;;;;;10.47;5.13;;;4.80;99.90;;;4.87;98.60;100012.47;5093471;28;20497;-61
2023/01/19 02:28:49;;;;;;;8.87;4.93;;;4.80;99.90;;;5.10;99.08;100002.97;5093405;28;20036;-61
2023/01/19 02:31:17;;;;;;;10.90;5.07;;;5.00;99.90;;;5.30;98.22;99994.28;5093332;28;20052;-61
2023/01/19 02:33:46;;;;;;;13.50;5.07;;;5.30;99.90;;;5.48;99.02;100006.53;5093505;28;20070;-61
2023/01/19 02:36:17;;;;;;;10.48;4.53;;;5.30;99.90;;;5.69;98.15;99974.25;5093211;28;20576;-61
2023/01/19 02:38:49;;;;;;;7.97;4.00;;;5.60;99.90;;;5.75;97.27;100003.13;5093326;28;20044;-61
2023/01/19 02:41:22;;;;;;;5.43;4.00;;;5.60;99.90;;;5.81;95.93;100018.84;5093568;28;20036;-61
2023/01/19 02:43:51;;;;;;;8.27;4.30;;;5.70;99.90;;;5.57;95.61;100024.94;5093245;28;20057;-61
2023/01/19 02:46:19;;;;;;;6.23;4.00;;;5.50;99.90;;;5.19;96.87;100018.69;5093153;28;20461;-61
2023/01/19 02:48:47;;;;;;;7.77;4.87;;;5.20;99.90;;;5.10;97.29;100034.41;5093362;28;20040;-62
2023/01/19 02:51:18;;;;;;;7.20;4.10;;;5.00;99.90;;;3.21;97.28;99676.78;5093191;28;20564;-61
2023/01/19 02:54:28;;;;;;;6.60;4.30;;;5.10;99.90;;;5.20;97.69;100017.84;5093103;28;20452;-61
2023/01/19 02:57:43;;;;;;;10.00;4.55;;;5.00;99.90;;;5.53;97.16;100010.91;5093146;28;20040;-61
2023/01/19 03:00:33;;;;;;;6.70;4.40;;;5.30;99.90;;;5.04;96.36;99869.28;5093134;28;20553;-61
2023/01/19 03:03:15;;;;;;;;;;;5.60;99.90;;;5.96;95.41;99997.91;5093713;28;20074;-61
2023/01/19 03:05:55;;;;;;;10.98;4.97;;;5.80;99.90;;;6.07;94.60;99997.03;5093348;28;20384;-61
2023/01/19 03:08:36;;;;;;;9.18;4.50;;;5.90;99.90;;;6.17;93.99;100011.91;5093031;28;20036;-62
2023/01/19 03:11:09;;;;;;;6.80;4.43;;;6.00;99.90;;;6.09;92.62;99976.91;5092997;28;20474;-61
2023/01/19 03:13:45;;;;;;;8.38;4.05;;;6.10;99.90;;;6.29;91.88;99998.75;5095377;28;20044;-61
2023/01/19 03:16:20;;;;;;;9.30;4.15;;;6.10;99.90;;;6.34;91.27;100001.38;5097035;28;20078;-61
2023/01/19 03:18:55;;;;;;;5.32;4.18;;;6.20;99.90;;;6.23;90.30;99997.91;5079240;28;20048;-62
2023/01/19 03:21:29;;;;;;;6.70;4.03;;;6.20;99.90;;;6.42;89.83;100001.34;5097020;28;20048;-61
2023/01/19 03:24:02;;;;;;;15.05;4.55;;;6.20;99.90;;;6.48;88.86;100003.97;5097033;28;20044;-61
2023/01/19 03:26:38;;;;;;;11.57;4.93;;;6.30;99.90;;;6.44;88.19;100000.47;5079083;28;20048;-62
2023/01/19 03:29:09;;;;;;;19.48;6.00;;;6.40;99.90;;;6.28;88.36;99997.00;5096833;28;20048;-61
2023/01/19 03:31:37;;;;;;;;;;;6.20;99.90;;;6.33;87.35;100003.09;5097335;28;20465;-61
2023/01/19 03:34:10;;;;;;;17.40;5.68;;;6.20;99.90;;;5.64;86.46;99889.41;5096974;28;19930;-62
2023/01/19 03:36:44;;;;;;;22.67;6.95;;;6.10;99.90;;;6.02;86.39;99958.53;5096960;28;20040;-62
2023/01/19 03:39:19;;;;;;;22.08;5.78;;;6.10;99.90;;;6.34;86.32;100001.38;5096765;28;20481;-61
2023/01/19 03:41:52;;;;;;;30.10;6.07;;;6.20;99.90;;;6.11;86.48;99950.66;5096873;28;20098;-61
2023/01/19 03:44:20;;;;;;;35.53;6.93;;;6.30;99.90;;;6.37;87.39;100010.09;5096975;28;20040;-61
2023/01/19 03:46:49;;;;;;;28.27;6.90;;;6.30;99.90;;;6.39;88.19;100024.13;5096451;28;20051;-61
2023/01/19 03:49:18;;;;;;;26.67;6.82;;;6.30;99.90;;;6.48;88.42;100027.59;5078426;28;20048;-61
2023/01/19 03:51:46;;;;;;;33.28;7.13;;;6.30;99.90;;;6.44;88.96;100036.38;5095358;28;20044;-61
2023/01/19 03:54:15;;;;;;;27.45;7.22;;;6.30;99.90;;;6.52;89.55;100043.38;5096660;28;20136;-61
2023/01/19 03:56:43;;;;;;;28.88;7.38;;;6.30;99.90;;;6.63;89.40;100046.84;5096266;28;20509;-61
2023/01/19 03:59:16;;;;;;;26.77;6.53;;;6.50;99.90;;;6.65;88.91;100046.84;5096790;28;20036;-61
2023/01/19 04:01:44;;;;;;;34.45;7.80;;;6.50;99.90;;;6.71;88.87;100039.81;5096448;28;20138;-61
2023/01/19 04:04:14;;;;;;;29.88;6.90;;;6.60;99.90;;;6.76;88.50;100053.81;5096310;28;20036;-61
2023/01/19 04:06:42;;;;;;;31.15;6.93;;;6.60;99.90;;;6.77;88.70;100058.22;5096647;28;20040;-61
2023/01/19 04:09:11;;;;;;;26.40;6.68;;;6.60;99.90;;;6.86;87.54;100054.66;5095986;28;20040;-61
2023/01/19 04:11:39;;;;;;;25.35;6.28;;;6.70;99.90;;;6.96;87.26;100057.28;5096565;28;20143;-61
2023/01/19 04:14:09;;;;;;;23.20;6.10;;;6.80;99.90;;;7.06;86.54;100053.75;5095986;28;20052;-61
2023/01/19 04:16:39;;;;;;;26.98;7.07;;;7.00;99.90;;;6.79;86.30;100032.81;5096277;28;20128;-61
2023/01/19 04:19:07;;;;;;;26.00;6.47;;;6.80;99.90;;;6.86;86.21;100047.66;5078138;28;20040;-61
2023/01/19 04:21:36;;;;;;;27.42;6.95;;;6.80;99.90;;;6.91;86.16;100055.53;5095993;28;20298;-62
2023/01/19 04:24:04;;;;;;;32.60;7.43;;;6.70;99.90;;;6.82;86.14;100058.19;5077421;28;20486;-61
2023/01/19 04:26:33;;;;;;;32.13;7.22;;;6.70;99.90;;;6.99;86.11;100052.00;5095615;28;20086;-62
2023/01/19 04:29:01;;;;;;;33.30;7.85;;;6.90;99.90;;;6.73;86.65;100021.44;5095648;28;20040;-61
2023/01/19 04:31:30;;;;;;;32.95;7.35;;;6.80;99.90;;;6.68;87.53;100046.84;5095835;28;20062;-61
2023/01/19 04:34:00;;;;;;;28.95;7.15;;;6.60;99.90;;;6.86;87.70;100058.19;5095785;28;20476;-61
2023/01/19 04:36:28;;;;;;;33.67;7.30;;;6.70;99.90;;;6.79;87.66;100052.94;5095471;28;20485;-61
2023/01/19 04:38:56;;;;;;;29.92;7.38;;;6.60;99.90;;;6.77;87.96;100052.06;5095478;28;20290;-61
2023/01/19 04:41:25;;;;;;;32.15;7.70;;;6.60;99.90;;;6.81;87.20;100045.94;5095395;28;20498;-61
2023/01/19 04:43:53;;;;;;;31.50;7.95;;;6.70;99.90;;;6.79;87.11;100021.41;5095364;28;20066;-61
2023/01/19 04:46:21;;;;;;;31.25;7.40;;;6.80;99.90;;;7.01;87.16;100054.63;5095865;28;20048;-62
2023/01/19 04:48:50;;;;;;;35.72;7.88;;;6.90;99.90;;;7.02;86.98;100066.91;5095278;28;20040;-61
2023/01/19 04:51:19;;;;;;;22.67;6.25;;;6.90;99.90;;;7.18;87.09;100064.19;5095573;28;20501;-61
2023/01/19 04:53:48;;;;;;;28.77;7.57;;;6.90;99.90;;;7.39;86.26;100071.13;5095489;28;20040;-61
2023/01/19 04:56:16;;;;;;;31.63;7.47;;;7.10;99.90;;;7.45;85.64;100068.47;5095095;28;20036;-61
2023/01/19 04:58:47;;;;;;;31.70;7.28;;;7.30;99.90;;;7.38;85.58;100072.00;5077191;28;20411;-61
2023/01/19 05:01:15;;;;;;;32.08;7.95;;;7.20;99.90;;;7.26;86.19;100072.03;5095103;28;20091;-61
2023/01/19 05:03:43;;;;;;;37.70;7.45;;;7.10;99.90;;;7.24;86.41;100077.31;5094988;28;20044;-61
2023/01/19 05:06:15;;;;;;;27.48;7.47;;;7.10;99.90;;;6.98;85.69;100050.25;5094893;28;20050;-61
2023/01/19 05:08:44;;;;;;;30.48;7.25;;;7.00;99.90;;;6.93;84.53;100051.16;5095297;28;20055;-61
2023/01/19 05:11:13;;;;;;;35.92;6.90;;;6.90;99.90;;;7.06;83.46;100076.53;5095172;28;20493;-62
2023/01/19 05:13:41;;;;;;;35.45;7.07;;;6.90;99.90;;;7.04;82.52;100073.91;5094857;28;20066;-62
2023/01/19 05:16:09;;;;;;;34.92;7.15;;;6.90;99.90;;;6.88;81.72;100063.44;5095040;28;20126;-62
2023/01/19 05:18:38;;;;;;;28.75;5.97;;;6.80;99.90;;;6.94;81.04;100080.06;5094651;28;20040;-61
2023/01/19 05:21:07;;;;;;;28.67;7.80;;;6.80;99.90;;;6.83;80.36;100075.72;5094686;28;20040;-61
2023/01/19 05:23:35;;;;;;;29.42;7.28;;;6.70;99.90;;;6.91;80.25;100084.47;5094840;28;20048;-61
2023/01/19 05:26:05;;;;;;;31.48;7.90;;;6.70;99.90;;;6.91;79.68;100079.19;5076954;28;20059;-61
2023/01/19 05:28:36;;;;;;;28.13;6.70;;;6.70;99.90;;;6.87;79.88;100090.59;5094762;28;20071;-61
2023/01/19 05:31:05;;;;;;;29.83;7.68;;;6.70;99.90;;;6.88;79.49;100077.44;5076124;28;20072;-62
2023/01/19 05:33:34;;;;;;;25.27;7.00;;;6.70;99.90;;;6.99;79.50;100090.53;5094702;28;20043;-61
2023/01/19 05:36:03;;;;;;;24.55;6.35;;;6.80;99.90;;;6.58;78.99;100037.22;5093466;28;20119;-61
2023/01/19 05:38:31;;;;;;;30.02;6.43;;;6.70;99.90;;;6.73;79.06;100063.47;5094340;28;20044;-61
2023/01/19 05:41:05;;;;;;;26.55;6.70;;;6.70;99.90;;;6.88;78.69;100087.97;5094315;28;20032;-61
2023/01/19 05:43:33;;;;;;;29.65;6.78;;;6.70;99.90;;;6.83;78.54;100086.22;5094855;28;20079;-61
2023/01/19 05:46:04;;;;;;;28.00;8.05;;;6.70;99.90;;;6.81;78.01;100093.25;5094158;28;20555;-61
2023/01/19 05:48:32;;;;;;;23.58;6.32;;;6.60;99.90;;;6.72;77.55;100103.75;5094194;28;20456;-61
2023/01/19 05:51:01;;;;;;;23.27;6.72;;;6.60;99.90;;;6.69;77.21;100095.88;5094069;28;20047;-61
2023/01/19 05:53:30;;;;;;;27.77;6.85;;;6.60;99.90;;;6.83;76.91;100109.88;5093984;28;20494;-61
2023/01/19 05:56:02;;;;;;;26.80;6.68;;;6.60;99.90;;;6.74;77.23;100100.25;5093903;28;20132;-61
2023/01/19 05:58:33;;;;;;;32.33;7.90;;;6.60;99.90;;;6.76;77.69;100116.88;5093881;28;20044;-61
2023/01/19 06:01:04;;;;;;;24.95;6.32;;;6.60;99.90;;;6.76;78.48;100118.63;5093981;28;20414;-62
2023/01/19 06:03:33;;;;;;;25.13;6.50;;;6.60;99.90;;;6.60;78.28;100093.28;5093917;28;20099;-61
2023/01/19 06:06:02;;;;;;;36.10;7.13;;;6.60;99.90;;;6.77;78.50;100121.28;5093783;28;20044;-61
2023/01/19 06:08:31;;;;;;;22.25;6.18;;;6.60;99.90;;;6.62;79.13;100123.91;5093758;28;20126;-61
2023/01/19 06:10:59;;;;;;;27.48;6.93;;;6.50;99.90;;;6.52;80.54;100127.44;5093694;28;20404;-61
2023/01/19 06:13:27;;;;;;;33.47;6.30;;;6.40;99.90;;;6.41;81.99;100129.16;5093692;28;20082;-62
2023/01/19 06:16:02;;;;;;;16.33;6.25;;;6.40;99.90;;;6.08;83.63;100124.75;5093497;28;20044;-61
2023/01/19 06:18:30;;;;;;;22.60;6.10;;;6.10;99.90;;;6.08;83.23;100113.38;5094148;28;20170;-61
2023/01/19 06:20:58;;;;;;;16.83;5.50;;;6.10;99.90;;;6.44;83.71;100128.28;5093814;28;20040;-62
2023/01/19 06:23:27;;;;;;;24.70;6.53;;;6.30;99.90;;;6.34;84.61;100112.53;5093541;28;20044;-61
2023/01/19 06:25:56;;;;;;;29.30;7.43;;;6.30;99.90;;;6.49;84.81;100129.16;5094081;28;20040;-61
2023/01/19 06:28:25;;;;;;;31.38;6.65;;;6.30;99.90;;;6.53;85.54;100136.16;5093883;28;20040;-61
2023/01/19 06:30:55;;;;;;;31.55;7.05;;;6.30;99.90;;;6.39;85.60;100105.53;5075370;28;20051;-61
2023/01/19 06:33:26;;;;;;;;;;;6.40;99.90;;;6.34;85.03;100107.28;5094399;28;20036;-62
2023/01/19 06:35:57;;;;;;;;;;;6.40;99.90;;;6.43;84.44;100137.91;5094066;28;19920;-62
2023/01/19 06:38:26;;;;;;;23.80;6.45;;;6.30;99.90;;;6.53;83.45;100150.19;5093417;28;19969;-61
2023/01/19 06:40:57;;;;;;;21.65;6.55;;;6.30;99.90;;;6.37;82.99;100138.78;5093480;28;20040;-61
2023/01/19 06:43:26;;;;;;;28.20;7.57;;;6.30;99.90;;;6.59;82.29;100160.69;5093532;28;20040;-61
2023/01/19 06:45:54;;;;;;;25.70;7.40;;;6.40;99.90;;;6.56;80.96;100160.72;5093195;28;20036;-61
2023/01/19 06:48:25;;;;;;;27.90;7.22;;;6.40;99.90;;;6.34;80.24;100140.53;5093132;28;20082;-61
2023/01/19 06:50:53;;;;;;;20.55;6.20;;;6.30;99.90;;;6.47;79.53;100167.66;5075410;28;20576;-61
2023/01/19 06:53:21;;;;;;;16.80;6.97;;;6.30;99.90;;;6.61;79.65;100171.19;5093114;28;20032;-61
2023/01/19 06:55:50;;;;;;;21.73;6.35;;;6.40;99.90;;;6.67;79.23;100174.72;5093062;28;20406;-61
2023/01/19 06:58:18;;;;;;;21.83;7.18;;;6.50;99.90;;;6.59;79.12;100188.72;5092983;28;20040;-61
2023/01/19 07:00:47;;;;;;;31.38;7.15;;;6.50;99.90;;;6.62;78.69;100183.47;5093347;28;20443;-61
2023/01/19 07:03:20;;;;;;;27.80;7.35;;;6.50;99.90;;;6.50;79.27;100175.56;5093089;28;20064;-61
2023/01/19 07:05:53;;;;;;;25.50;6.43;;;6.50;99.90;;;6.46;80.24;100161.56;5092896;28;20063;-61
2023/01/19 07:08:22;;;;;;;28.00;7.13;;;6.50;99.90;;;6.72;81.27;100195.72;5093116;28;20089;-61
2023/01/19 07:10:50;;;;;;;25.27;6.75;;;6.50;99.90;;;6.73;81.68;100200.09;5092510;28;20413;-62
2023/01/19 07:13:41;;;;;;;30.90;6.72;;;6.50;99.90;;;6.53;82.03;100165.94;5074768;28;20048;-61
2023/01/19 07:16:12;;;;;;;30.15;7.40;;;6.50;99.90;;;6.83;81.82;100213.22;5092781;28;20048;-61
2023/01/19 07:18:41;;;;;;;34.97;6.50;;;6.60;99.90;;;6.70;81.23;100194.81;5093140;28;20041;-61
2023/01/19 07:21:11;;;;;;;31.35;7.22;;;6.70;99.90;;;6.85;80.78;100216.72;5092693;28;20461;-61
2023/01/19 07:23:39;;;;;;;23.33;6.50;;;6.70;99.90;;;6.89;80.24;100218.47;5092770;28;20048;-61
2023/01/19 07:26:07;;;;;;;20.92;6.57;;;6.80;99.90;;;6.88;80.28;100226.38;5092734;28;20700;-61
2023/01/19 07:28:36;;;;;;;23.83;6.80;;;6.70;99.90;;;6.92;79.39;100226.38;5093282;28;20056;-61
2023/01/19 07:31:05;;;;;;;18.67;6.78;;;6.80;99.90;;;6.90;79.15;100236.03;5092891;28;20054;-61
2023/01/19 07:33:34;;;;;;;27.13;6.72;;;6.80;99.90;;;6.87;79.09;100237.78;5092841;28;20060;-61
2023/01/19 07:36:03;;;;;;;27.10;7.15;;;6.80;99.90;;;7.01;79.03;100239.53;5074891;28;20147;-61
2023/01/19 07:38:33;;;;;;;24.80;6.07;;;6.80;99.90;;;6.75;78.83;100241.28;5092695;28;20046;-61
2023/01/19 07:41:01;;;;;;;22.60;6.22;;;6.70;99.90;;;6.75;78.65;100245.66;5093006;28;20484;-61
2023/01/19 07:43:32;;;;;;;21.58;6.07;;;6.70;99.90;;;6.66;78.88;100224.63;5092640;28;20032;-61
2023/01/19 07:46:03;;;;;;;16.55;5.80;;;6.70;99.90;;;6.78;78.91;100258.78;5092943;28;20075;-61
2023/01/19 07:48:35;;;;;;;24.63;6.65;;;6.60;99.90;;;6.65;79.53;100259.66;5092560;28;20093;-61
2023/01/19 07:51:07;;;;;;;25.30;7.45;;;6.50;99.90;;;6.84;79.56;100256.16;5092586;28;20543;-61
2023/01/19 07:53:41;;;;;;;18.23;5.88;;;6.60;99.90;;;6.76;78.97;100263.16;5092989;28;20416;-61
2023/01/19 07:56:09;;;;;;;18.08;6.15;;;6.60;99.90;;;6.76;78.56;100263.16;5092537;28;20047;-61
2023/01/19 07:58:37;;;;;;;20.98;6.22;;;6.60;99.90;;;6.97;77.99;100277.19;5093331;28;20050;-61
2023/01/19 08:01:07;;;;;;;16.95;5.45;;;6.80;99.90;;;6.60;76.82;100243.88;5096240;28;20051;-61
2023/01/19 08:03:36;;;;;;;17.83;6.18;;;6.70;99.90;;;6.79;75.42;100271.06;5096570;28;20048;-62
2023/01/19 08:06:05;;;;;;;22.20;6.50;;;6.60;99.90;;;6.70;74.79;100284.16;5096105;28;20036;-61
2023/01/19 08:08:34;;;;;;;23.92;6.53;;;6.60;99.90;;;6.73;74.44;100279.81;5096024;28;20036;-61
2023/01/19 08:11:04;;;;;;;14.85;5.53;;;6.60;99.90;;;6.79;73.97;100286.84;5096032;28;20537;-61
2023/01/19 08:13:33;;;;;;;21.25;6.40;;;6.60;99.90;;;6.82;73.54;100289.44;5096068;28;20044;-61
2023/01/19 08:16:01;;;;;;;22.50;6.38;;;6.70;99.90;;;6.88;73.19;100285.09;5095975;28;20176;-61
2023/01/19 08:18:29;;;;;;;19.85;5.28;;;6.70;99.90;;;6.82;71.50;100264.06;5095874;28;20032;-61
2023/01/19 08:20:59;;;;;;;17.88;5.68;;;6.90;99.90;;;7.01;70.50;100275.44;5095855;28;20117;-61
2023/01/19 08:23:28;;;;;;;14.55;5.50;;;7.00;99.90;;;7.39;69.65;100296.47;5095772;28;20052;-61
2023/01/19 08:25:57;;;;;;;16.77;6.10;;;7.20;99.90;;;7.64;69.82;100303.47;5096122;28;20470;-62
2023/01/19 08:28:28;;;;;;;19.80;5.90;;;7.50;99.90;;;7.81;69.16;100302.56;5095633;28;20050;-61
2023/01/19 08:30:58;;;;;;;19.23;6.32;;;7.70;99.90;;;8.15;68.66;100312.09;5095937;28;20056;-61
2023/01/19 08:33:46;;;;;;;20.38;5.95;;;8.00;99.90;;;8.32;67.87;100321.72;5095929;28;20056;-61
2023/01/19 08:36:14;;;;;;;18.10;5.60;;;8.10;99.90;;;8.41;67.37;100325.19;5095590;28;20134;-62
2023/01/19 08:38:44;;;;;;;20.65;6.15;;;8.30;99.90;;;8.68;66.70;100327.69;5095449;28;20123;-61
2023/01/19 08:41:15;;;;;;;15.60;6.32;;;8.50;99.90;;;8.71;66.38;100329.44;5095779;28;20064;-61
2023/01/19 08:43:45;;;;;;;15.10;5.50;;;8.60;99.90;;;8.67;65.86;100333.81;5095568;28;20405;-62
2023/01/19 08:46:16;;;;;;;20.90;5.32;;;8.50;99.90;;;8.71;65.03;100332.94;5095402;28;20532;-61
2023/01/19 08:48:46;;;;;;;25.15;5.63;;;8.50;99.90;;;8.84;64.87;100336.38;5095661;28;20048;-62
2023/01/19 08:51:15;;;;;;;18.58;5.90;;;8.60;99.90;;;8.95;64.74;100330.16;5095384;28;20045;-61
2023/01/19 08:53:44;;;;;;;16.75;5.13;;;8.70;99.90;;;9.12;63.16;100342.38;5095471;28;20118;-61
2023/01/19 08:56:13;;;;;;;15.95;5.20;;;8.90;99.90;;;9.31;61.95;100342.19;5077235;28;20102;-61
2023/01/19 08:58:44;;;;;;;13.27;5.28;;;9.10;99.90;;;9.31;61.58;100343.97;5095317;28;20044;-61
2023/01/19 09:01:24;;;;;;;13.70;5.03;;;9.20;99.90;;;9.45;60.14;100339.44;5095407;28;20044;-61
2023/01/19 09:03:53;;;;;;;11.95;4.78;;;9.20;99.90;;;9.67;59.67;100341.00;5095000;28;20075;-61
2023/01/19 09:06:23;;;;;;;18.88;4.90;;;9.50;99.90;;;9.61;59.96;100344.59;5095082;28;20044;-61
2023/01/19 09:08:51;;;;;;;13.30;4.88;;;9.40;99.90;;;9.87;59.14;100353.13;5095125;28;20040;-62
2023/01/19 09:11:19;;;;;;;14.90;4.57;;;9.60;99.90;;;10.09;59.17;100352.91;5093540;28;20063;-61
2023/01/19 09:13:49;;;;;;;10.50;4.55;;;9.80;99.90;;;10.16;58.18;100355.53;5094905;28;20036;-61
2023/01/19 09:16:18;;;;;;;15.45;5.35;;;9.90;99.90;;;10.25;57.50;100357.16;5094707;28;20097;-61
2023/01/19 09:18:46;;;;;;;11.02;4.70;;;10.10;99.90;;;10.03;56.24;100357.38;5094812;28;20032;-61
2023/01/19 09:21:15;;;;;;;15.32;4.53;;;9.90;99.90;;;10.11;56.46;100356.44;5094558;28;20115;-61
2023/01/19 09:23:44;;;;;;;13.52;4.15;;;9.90;99.90;;;10.29;56.72;100365.06;5094725;28;20572;-61
2023/01/19 09:26:12;;;;;;;10.80;4.22;;;10.10;99.90;;;10.34;55.99;100364.97;5094590;28;20036;-61
2023/01/19 09:28:40;;;;;;;12.98;4.28;;;10.20;99.90;;;10.43;54.66;100363.09;5076544;28;20054;-61
2023/01/19 09:31:10;;;;;;;9.82;3.92;;;10.30;99.90;;;10.15;54.18;100368.72;5094101;28;20390;-61
2023/01/19 09:33:39;;;;;;;8.07;4.22;;;10.10;99.90;;;10.04;53.87;100355.63;5094370;28;20508;-61
2023/01/19 09:36:08;;;;;;;9.77;4.10;;;10.00;99.90;;;9.89;53.70;100372.47;5094560;28;20036;-63
2023/01/19 09:38:37;;;;;;;7.32;3.83;;;9.80;99.90;;;10.26;53.99;100380.09;5094212;28;20482;-61
2023/01/19 09:41:20;;;;;;;10.73;4.38;;;10.00;99.90;;;10.19;53.05;100347.53;5094208;28;20119;-61
2023/01/19 09:43:54;;;;;;;11.35;4.30;;;10.30;99.90;;;10.04;52.96;100367.03;5094235;28;20036;-61
2023/01/19 09:46:32;;;;;;;10.13;4.03;;;9.90;99.90;;;9.72;52.83;100365.59;5094204;28;20055;-62
2023/01/19 09:49:05;;;;;;;13.00;4.30;;;9.70;99.90;;;9.49;53.51;100375.47;5076430;28;20055;-61
2023/01/19 09:51:37;;;;;;;7.35;3.95;;;9.40;99.90;;;9.61;53.84;100380.66;5094128;28;20101;-62
2023/01/19 09:54:14;;;;;;;9.57;4.05;;;9.40;99.90;;;9.31;53.50;100383.56;5093976;28;20081;-61
2023/01/19 09:56:44;;;;;;;6.53;4.07;;;9.10;99.90;;;9.54;53.95;100395.66;5094009;28;20444;-61
2023/01/19 09:59:21;;;;;;;8.35;4.03;;;9.40;99.90;;;9.21;53.37;100372.19;5093801;28;20040;-61
2023/01/19 10:02:16;;;;;;;7.63;3.97;;;9.20;99.90;;;8.03;53.51;100204.16;5093873;28;20417;-61
2023/01/19 10:04:50;;;;;;;8.40;4.07;;;9.00;99.90;;;9.09;54.07;100388.09;5094019;28;20386;-61
2023/01/19 10:07:52;;;;;;;9.40;4.43;;;9.00;99.90;;;9.29;53.90;100402.03;5094098;28;20465;-61
2023/01/19 10:10:24;;;;;;;9.05;4.18;;;9.20;99.90;;;8.94;53.67;100385.56;5093859;28;20417;-61
2023/01/19 10:13:09;;;;;;;12.02;4.85;;;9.00;99.90;;;8.52;55.26;100315.47;5093677;28;20051;-61
2023/01/19 10:15:48;;;;;;;6.20;4.00;;;8.90;99.90;;;8.97;54.51;100402.25;5075687;28;20048;-61
2023/01/19 10:18:24;;;;;;;7.70;4.45;;;8.80;99.90;;;6.94;54.81;100073.91;5093785;28;20097;-61
2023/01/19 10:21:00;;;;;;;7.38;4.32;;;8.70;99.90;;;9.13;54.73;100402.13;5093576;28;20465;-62
2023/01/19 10:23:39;;;;;;;8.48;3.83;;;8.90;99.90;;;9.43;53.75;100416.00;5093540;28;20098;-61
2023/01/19 10:26:14;;;;;;;6.95;3.80;;;9.10;99.90;;;9.39;52.54;100406.34;5093844;28;20076;-61
2023/01/19 10:28:43;;;;;;;11.80;4.72;;;9.30;99.90;;;9.70;52.98;100417.56;5093695;28;20069;-61
2023/01/19 10:31:17;;;;;;;10.57;4.10;;;9.50;99.90;;;9.83;52.53;100403.38;5093244;28;20052;-61
2023/01/19 10:33:48;;;;;;;11.00;4.18;;;9.70;99.90;;;10.24;52.90;100397.72;5075432;28;20048;-61
2023/01/19 10:36:20;;;;;;;7.75;4.30;;;10.00;99.90;;;10.63;51.86;100423.69;5093917;28;20043;-62
2023/01/19 10:38:49;;;;;;;6.30;3.60;;;10.40;99.90;;;10.46;49.95;100420.38;5093567;28;20056;-61
2023/01/19 10:41:23;;;;;;;12.70;4.55;;;10.30;99.90;;;10.41;50.04;100422.19;5093229;28;20497;-61
2023/01/19 10:44:00;;;;;;;8.55;4.32;;;10.30;99.90;;;10.12;48.80;100416.34;5075455;28;20052;-61
2023/01/19 10:46:38;;;;;;;8.00;3.97;;;10.20;99.90;;;9.62;50.56;100364.81;5093412;28;20138;-61
2023/01/19 10:49:26;;;;;;;5.20;3.30;;;9.80;99.90;;;9.60;49.71;100410.63;5093102;28;20101;-61
2023/01/19 10:51:56;;;;;;;7.25;3.72;;;9.50;99.90;;;9.71;50.07;100406.13;5093700;28;20044;-61